sensor_id;sensor_type;location;lat;lon;timestamp;pressure;altitude;pressure_sealevel;temperature
15680;BMP180;15488;48.114;11.532;2023-11-21T00:00:00;94848.00;;;15.60
15680;BMP180;15488;48.114;11.532;2023-11-21T00:02:27;94846.00;;;15.60
15680;BMP180;15488;48.114;11.532;2023-11-21T00:04:55;94841.00;;;15.50
15680;BMP180;15488;48.114;11.532;2023-11-21T00:07:23;94844.00;;;15.50
15680;BMP180;15488;48.114;11.532;2023-11-21T00:09:51;94837.00;;;15.50
15680;BMP180;15488;48.114;11.532;2023-11-21T00:12:18;94824.00;;;15.40
15680;BMP180;15488;48.114;11.532;2023-11-21T00:14:46;94823.00;;;15.30
15680;BMP180;15488;48.114;11.532;2023-11-21T00:17:14;94818.00;;;15.30
15680;BMP180;15488;48.114;11.532;2023-11-21T00:19:41;94812.00;;;15.30
15680;BMP180;15488;48.114;11.532;2023-11-21T00:22:09;94811.00;;;15.20
15680;BMP180;15488;48.114;11.532;2023-11-21T00:24:38;94797.00;;;15.20
15680;BMP180;15488;48.114;11.532;2023-11-21T00:27:05;94802.00;;;15.20
15680;BMP180;15488;48.114;11.532;2023-11-21T00:29:33;94792.00;;;15.20
15680;BMP180;15488;48.114;11.532;2023-11-21T00:32:00;94789.00;;;15.30
15680;BMP180;15488;48.114;11.532;2023-11-21T00:34:28;94792.00;;;15.20
15680;BMP180;15488;48.114;11.532;2023-11-21T00:36:55;94782.00;;;15.20
15680;BMP180;15488;48.114;11.532;2023-11-21T00:39:23;94780.00;;;15.20
15680;BMP180;15488;48.114;11.532;2023-11-21T00:41:53;94778.00;;;15.20
15680;BMP180;15488;48.114;11.532;2023-11-21T00:44:20;94782.00;;;15.20
15680;BMP180;15488;48.114;11.532;2023-11-21T00:46:48;94772.00;;;15.20
15680;BMP180;15488;48.114;11.532;2023-11-21T00:49:16;94774.00;;;15.40
15680;BMP180;15488;48.114;11.532;2023-11-21T00:51:44;94774.00;;;15.30
15680;BMP180;15488;48.114;11.532;2023-11-21T00:54:11;94771.00;;;15.30
15680;BMP180;15488;48.114;11.532;2023-11-21T00:56:39;94773.00;;;15.30
15680;BMP180;15488;48.114;11.532;2023-11-21T00:59:08;94775.00;;;15.30
15680;BMP180;15488;48.114;11.532;2023-11-21T01:01:36;94777.00;;;15.30
15680;BMP180;15488;48.114;11.532;2023-11-21T01:04:05;94772.00;;;15.30
15680;BMP180;15488;48.114;11.532;2023-11-21T01:06:34;94773.00;;;15.20
15680;BMP180;15488;48.114;11.532;2023-11-21T01:09:01;94779.00;;;15.30
15680;BMP180;15488;48.114;11.532;2023-11-21T01:11:34;94774.00;;;15.30
15680;BMP180;15488;48.114;11.532;2023-11-21T01:14:03;94788.00;;;15.30
15680;BMP180;15488;48.114;11.532;2023-11-21T01:16:32;94779.00;;;15.20
15680;BMP180;15488;48.114;11.532;2023-11-21T01:18:59;94772.00;;;15.20
15680;BMP180;15488;48.114;11.532;2023-11-21T01:21:27;94776.00;;;15.30
15680;BMP180;15488;48.114;11.532;2023-11-21T01:23:55;94771.00;;;15.20
15680;BMP180;15488;48.114;11.532;2023-11-21T01:26:22;94774.00;;;15.20
15680;BMP180;15488;48.114;11.532;2023-11-21T01:28:50;94775.00;;;15.20
15680;BMP180;15488;48.114;11.532;2023-11-21T01:31:17;94774.00;;;15.20
15680;BMP180;15488;48.114;11.532;2023-11-21T01:33:47;94773.00;;;15.20
15680;BMP180;15488;48.114;11.532;2023-11-21T01:36:15;94778.00;;;15.20
15680;BMP180;15488;48.114;11.532;2023-11-21T01:38:43;94775.00;;;15.20
15680;BMP180;15488;48.114;11.532;2023-11-21T01:41:10;94779.00;;;15.20
15680;BMP180;15488;48.114;11.532;2023-11-21T01:43:39;94787.00;;;15.20
15680;BMP180;15488;48.114;11.532;2023-11-21T01:46:06;94772.00;;;15.20
15680;BMP180;15488;48.114;11.532;2023-11-21T01:48:35;94776.00;;;15.20
15680;BMP180;15488;48.114;11.532;2023-11-21T01:51:05;94777.00;;;15.20
15680;BMP180;15488;48.114;11.532;2023-11-21T01:53:33;94774.00;;;15.20
15680;BMP180;15488;48.114;11.532;2023-11-21T01:56:00;94777.00;;;15.20
15680;BMP180;15488;48.114;11.532;2023-11-21T01:58:28;94777.00;;;15.30
15680;BMP180;15488;48.114;11.532;2023-11-21T02:00:55;94781.00;;;15.40
15680;BMP180;15488;48.114;11.532;2023-11-21T02:03:24;94779.00;;;15.40
15680;BMP180;15488;48.114;11.532;2023-11-21T02:05:52;94790.00;;;15.40
15680;BMP180;15488;48.114;11.532;2023-11-21T02:08:22;94784.00;;;15.50
15680;BMP180;15488;48.114;11.532;2023-11-21T02:10:49;94785.00;;;15.30
15680;BMP180;15488;48.114;11.532;2023-11-21T02:13:16;94783.00;;;15.30
15680;BMP180;15488;48.114;11.532;2023-11-21T02:15:44;94794.00;;;15.30
15680;BMP180;15488;48.114;11.532;2023-11-21T02:18:12;94795.00;;;15.30
15680;BMP180;15488;48.114;11.532;2023-11-21T02:20:41;94799.00;;;15.30
15680;BMP180;15488;48.114;11.532;2023-11-21T02:23:10;94794.00;;;15.30
15680;BMP180;15488;48.114;11.532;2023-11-21T02:25:39;94800.00;;;15.30
15680;BMP180;15488;48.114;11.532;2023-11-21T02:28:08;94793.00;;;15.30
15680;BMP180;15488;48.114;11.532;2023-11-21T02:30:38;94803.00;;;15.30
15680;BMP180;15488;48.114;11.532;2023-11-21T02:33:06;94799.00;;;15.30
15680;BMP180;15488;48.114;11.532;2023-11-21T02:35:33;94799.00;;;15.30
15680;BMP180;15488;48.114;11.532;2023-11-21T02:38:01;94795.00;;;15.30
15680;BMP180;15488;48.114;11.532;2023-11-21T02:40:30;94801.00;;;15.00
15680;BMP180;15488;48.114;11.532;2023-11-21T02:42:57;94794.00;;;15.30
15680;BMP180;15488;48.114;11.532;2023-11-21T02:45:25;94792.00;;;15.20
15680;BMP180;15488;48.114;11.532;2023-11-21T02:47:52;94786.00;;;15.20
15680;BMP180;15488;48.114;11.532;2023-11-21T02:50:23;94773.00;;;15.20
15680;BMP180;15488;48.114;11.532;2023-11-21T02:52:50;94776.00;;;15.20
15680;BMP180;15488;48.114;11.532;2023-11-21T02:55:18;94777.00;;;15.20
15680;BMP180;15488;48.114;11.532;2023-11-21T02:57:47;94774.00;;;15.20
15680;BMP180;15488;48.114;11.532;2023-11-21T03:00:15;94766.00;;;15.20
15680;BMP180;15488;48.114;11.532;2023-11-21T03:02:43;94768.00;;;15.20
15680;BMP180;15488;48.114;11.532;2023-11-21T03:05:10;94767.00;;;15.20
15680;BMP180;15488;48.114;11.532;2023-11-21T03:07:39;94759.00;;;15.20
15680;BMP180;15488;48.114;11.532;2023-11-21T03:10:08;94760.00;;;15.20
15680;BMP180;15488;48.114;11.532;2023-11-21T03:12:37;94762.00;;;15.20
15680;BMP180;15488;48.114;11.532;2023-11-21T03:15:07;94760.00;;;15.10
15680;BMP180;15488;48.114;11.532;2023-11-21T03:17:34;94764.00;;;15.10
15680;BMP180;15488;48.114;11.532;2023-11-21T03:20:02;94757.00;;;15.10
15680;BMP180;15488;48.114;11.532;2023-11-21T03:22:30;94759.00;;;15.00
15680;BMP180;15488;48.114;11.532;2023-11-21T03:24:57;94763.00;;;15.00
15680;BMP180;15488;48.114;11.532;2023-11-21T03:27:25;94753.00;;;15.00
15680;BMP180;15488;48.114;11.532;2023-11-21T03:29:52;94757.00;;;14.90
15680;BMP180;15488;48.114;11.532;2023-11-21T03:32:22;94754.00;;;14.90
15680;BMP180;15488;48.114;11.532;2023-11-21T03:34:59;94756.00;;;14.90
15680;BMP180;15488;48.114;11.532;2023-11-21T03:37:28;94746.00;;;14.80
15680;BMP180;15488;48.114;11.532;2023-11-21T03:39:56;94679.00;;;14.80
15680;BMP180;15488;48.114;11.532;2023-11-21T03:42:24;94754.00;;;14.80
15680;BMP180;15488;48.114;11.532;2023-11-21T03:44:52;94750.00;;;14.80
15680;BMP180;15488;48.114;11.532;2023-11-21T03:47:21;94748.00;;;14.70
15680;BMP180;15488;48.114;11.532;2023-11-21T03:49:49;94748.00;;;14.70
15680;BMP180;15488;48.114;11.532;2023-11-21T03:52:16;94754.00;;;14.70
15680;BMP180;15488;48.114;11.532;2023-11-21T03:54:43;94751.00;;;14.70
15680;BMP180;15488;48.114;11.532;2023-11-21T03:57:10;94757.00;;;14.60
15680;BMP180;15488;48.114;11.532;2023-11-21T03:59:40;94753.00;;;14.60
15680;BMP180;15488;48.114;11.532;2023-11-21T04:02:08;94755.00;;;14.60
15680;BMP180;15488;48.114;11.532;2023-11-21T04:04:37;94755.00;;;14.60
15680;BMP180;15488;48.114;11.532;2023-11-21T04:07:05;94764.00;;;14.60
15680;BMP180;15488;48.114;11.532;2023-11-21T04:09:33;94764.00;;;14.50
15680;BMP180;15488;48.114;11.532;2023-11-21T04:12:02;94757.00;;;14.60
15680;BMP180;15488;48.114;11.532;2023-11-21T04:14:30;94760.00;;;14.70
15680;BMP180;15488;48.114;11.532;2023-11-21T04:16:57;94757.00;;;14.60
15680;BMP180;15488;48.114;11.532;2023-11-21T04:19:25;94749.00;;;14.60
15680;BMP180;15488;48.114;11.532;2023-11-21T04:21:54;94751.00;;;14.50
15680;BMP180;15488;48.114;11.532;2023-11-21T04:24:21;94750.00;;;14.50
15680;BMP180;15488;48.114;11.532;2023-11-21T04:26:49;94762.00;;;14.60
15680;BMP180;15488;48.114;11.532;2023-11-21T04:29:16;94764.00;;;14.40
15680;BMP180;15488;48.114;11.532;2023-11-21T04:31:44;94763.00;;;14.30
15680;BMP180;15488;48.114;11.532;2023-11-21T04:34:12;94765.00;;;14.20
15680;BMP180;15488;48.114;11.532;2023-11-21T04:36:40;94768.00;;;14.20
15680;BMP180;15488;48.114;11.532;2023-11-21T04:39:09;94761.00;;;14.20
15680;BMP180;15488;48.114;11.532;2023-11-21T04:41:37;94777.00;;;14.10
15680;BMP180;15488;48.114;11.532;2023-11-21T04:44:06;94764.00;;;14.00
15680;BMP180;15488;48.114;11.532;2023-11-21T04:46:33;94764.00;;;14.00
15680;BMP180;15488;48.114;11.532;2023-11-21T04:49:01;94769.00;;;14.00
15680;BMP180;15488;48.114;11.532;2023-11-21T04:51:29;94773.00;;;14.00
15680;BMP180;15488;48.114;11.532;2023-11-21T04:53:58;94767.00;;;14.10
15680;BMP180;15488;48.114;11.532;2023-11-21T04:56:27;94768.00;;;14.10
15680;BMP180;15488;48.114;11.532;2023-11-21T04:58:54;94771.00;;;14.10
15680;BMP180;15488;48.114;11.532;2023-11-21T05:01:22;94777.00;;;14.10
15680;BMP180;15488;48.114;11.532;2023-11-21T05:03:49;94775.00;;;14.10
15680;BMP180;15488;48.114;11.532;2023-11-21T05:06:16;94771.00;;;14.10
15680;BMP180;15488;48.114;11.532;2023-11-21T05:08:44;94773.00;;;14.20
15680;BMP180;15488;48.114;11.532;2023-11-21T05:11:11;94768.00;;;14.20
15680;BMP180;15488;48.114;11.532;2023-11-21T05:13:40;94772.00;;;14.10
15680;BMP180;15488;48.114;11.532;2023-11-21T05:16:08;94765.00;;;14.10
15680;BMP180;15488;48.114;11.532;2023-11-21T05:18:36;94772.00;;;14.10
15680;BMP180;15488;48.114;11.532;2023-11-21T05:21:03;94771.00;;;14.10
15680;BMP180;15488;48.114;11.532;2023-11-21T05:23:31;94773.00;;;14.10
15680;BMP180;15488;48.114;11.532;2023-11-21T05:26:00;94777.00;;;14.10
15680;BMP180;15488;48.114;11.532;2023-11-21T05:28:28;94775.00;;;14.10
15680;BMP180;15488;48.114;11.532;2023-11-21T05:30:56;94785.00;;;14.00
15680;BMP180;15488;48.114;11.532;2023-11-21T05:33:24;94781.00;;;14.00
15680;BMP180;15488;48.114;11.532;2023-11-21T05:35:51;94787.00;;;14.00
15680;BMP180;15488;48.114;11.532;2023-11-21T05:38:19;94788.00;;;14.10
15680;BMP180;15488;48.114;11.532;2023-11-21T05:40:47;94785.00;;;14.10
15680;BMP180;15488;48.114;11.532;2023-11-21T05:43:15;94793.00;;;14.10
15680;BMP180;15488;48.114;11.532;2023-11-21T05:45:42;94785.00;;;14.10
15680;BMP180;15488;48.114;11.532;2023-11-21T05:48:11;94793.00;;;14.20
15680;BMP180;15488;48.114;11.532;2023-11-21T05:50:39;94796.00;;;14.20
15680;BMP180;15488;48.114;11.532;2023-11-21T05:53:06;94796.00;;;14.20
15680;BMP180;15488;48.114;11.532;2023-11-21T05:55:36;94798.00;;;14.20
15680;BMP180;15488;48.114;11.532;2023-11-21T05:58:05;94807.00;;;14.30
15680;BMP180;15488;48.114;11.532;2023-11-21T06:00:33;94797.00;;;14.20
15680;BMP180;15488;48.114;11.532;2023-11-21T06:03:01;94794.00;;;14.20
15680;BMP180;15488;48.114;11.532;2023-11-21T06:05:30;94801.00;;;14.20
15680;BMP180;15488;48.114;11.532;2023-11-21T06:07:58;94794.00;;;14.20
15680;BMP180;15488;48.114;11.532;2023-11-21T06:10:26;94799.00;;;14.20
15680;BMP180;15488;48.114;11.532;2023-11-21T06:12:54;94797.00;;;14.20
15680;BMP180;15488;48.114;11.532;2023-11-21T06:15:22;94805.00;;;14.20
15680;BMP180;15488;48.114;11.532;2023-11-21T06:17:50;94808.00;;;14.20
15680;BMP180;15488;48.114;11.532;2023-11-21T06:20:18;94811.00;;;14.20
15680;BMP180;15488;48.114;11.532;2023-11-21T06:22:48;94812.00;;;14.20
15680;BMP180;15488;48.114;11.532;2023-11-21T06:25:16;94814.00;;;14.20
15680;BMP180;15488;48.114;11.532;2023-11-21T06:27:44;94813.00;;;14.10
15680;BMP180;15488;48.114;11.532;2023-11-21T06:30:13;94820.00;;;14.20
15680;BMP180;15488;48.114;11.532;2023-11-21T06:32:42;94822.00;;;14.10
15680;BMP180;15488;48.114;11.532;2023-11-21T06:35:11;94819.00;;;14.10
15680;BMP180;15488;48.114;11.532;2023-11-21T06:37:39;94826.00;;;14.20
15680;BMP180;15488;48.114;11.532;2023-11-21T06:40:09;94825.00;;;14.10
15680;BMP180;15488;48.114;11.532;2023-11-21T06:42:36;94824.00;;;14.10
15680;BMP180;15488;48.114;11.532;2023-11-21T06:45:05;94824.00;;;14.10
15680;BMP180;15488;48.114;11.532;2023-11-21T06:47:33;94823.00;;;14.10
15680;BMP180;15488;48.114;11.532;2023-11-21T06:50:00;94828.00;;;14.00
15680;BMP180;15488;48.114;11.532;2023-11-21T06:52:28;94825.00;;;14.10
15680;BMP180;15488;48.114;11.532;2023-11-21T06:54:55;94828.00;;;14.10
15680;BMP180;15488;48.114;11.532;2023-11-21T06:57:25;94833.00;;;14.10
15680;BMP180;15488;48.114;11.532;2023-11-21T06:59:52;94840.00;;;14.20
15680;BMP180;15488;48.114;11.532;2023-11-21T07:02:20;94841.00;;;14.20
15680;BMP180;15488;48.114;11.532;2023-11-21T07:04:47;94846.00;;;14.20
15680;BMP180;15488;48.114;11.532;2023-11-21T07:07:14;94849.00;;;14.30
15680;BMP180;15488;48.114;11.532;2023-11-21T07:09:42;94849.00;;;14.30
15680;BMP180;15488;48.114;11.532;2023-11-21T07:12:10;94857.00;;;14.30
15680;BMP180;15488;48.114;11.532;2023-11-21T07:14:38;94857.00;;;14.30
15680;BMP180;15488;48.114;11.532;2023-11-21T07:17:09;94861.00;;;14.40
15680;BMP180;15488;48.114;11.532;2023-11-21T07:19:38;94863.00;;;14.40
15680;BMP180;15488;48.114;11.532;2023-11-21T07:22:05;94857.00;;;14.40
15680;BMP180;15488;48.114;11.532;2023-11-21T07:24:33;94865.00;;;14.40
15680;BMP180;15488;48.114;11.532;2023-11-21T07:27:01;94869.00;;;14.40
15680;BMP180;15488;48.114;11.532;2023-11-21T07:29:30;94873.00;;;14.40
15680;BMP180;15488;48.114;11.532;2023-11-21T07:31:59;94866.00;;;14.40
15680;BMP180;15488;48.114;11.532;2023-11-21T07:34:26;94868.00;;;14.40
15680;BMP180;15488;48.114;11.532;2023-11-21T07:36:54;94865.00;;;14.40
15680;BMP180;15488;48.114;11.532;2023-11-21T07:39:21;94865.00;;;14.40
15680;BMP180;15488;48.114;11.532;2023-11-21T07:41:49;94863.00;;;14.40
15680;BMP180;15488;48.114;11.532;2023-11-21T07:44:16;94871.00;;;14.50
15680;BMP180;15488;48.114;11.532;2023-11-21T07:46:45;94863.00;;;14.30
15680;BMP180;15488;48.114;11.532;2023-11-21T07:49:14;94864.00;;;14.40
15680;BMP180;15488;48.114;11.532;2023-11-21T07:51:44;94865.00;;;14.30
15680;BMP180;15488;48.114;11.532;2023-11-21T07:54:11;94868.00;;;14.30
15680;BMP180;15488;48.114;11.532;2023-11-21T07:56:39;94864.00;;;14.30
15680;BMP180;15488;48.114;11.532;2023-11-21T07:59:06;94867.00;;;14.20
15680;BMP180;15488;48.114;11.532;2023-11-21T08:01:34;94867.00;;;14.30
15680;BMP180;15488;48.114;11.532;2023-11-21T08:04:01;94875.00;;;14.40
15680;BMP180;15488;48.114;11.532;2023-11-21T08:06:31;94874.00;;;14.40
15680;BMP180;15488;48.114;11.532;2023-11-21T08:08:58;94872.00;;;14.40
15680;BMP180;15488;48.114;11.532;2023-11-21T08:11:26;94875.00;;;14.50
15680;BMP180;15488;48.114;11.532;2023-11-21T08:13:55;94874.00;;;14.50
15680;BMP180;15488;48.114;11.532;2023-11-21T08:16:23;94872.00;;;14.50
15680;BMP180;15488;48.114;11.532;2023-11-21T08:18:51;94880.00;;;14.50
15680;BMP180;15488;48.114;11.532;2023-11-21T08:21:18;94881.00;;;14.60
15680;BMP180;15488;48.114;11.532;2023-11-21T08:23:47;94872.00;;;14.50
15680;BMP180;15488;48.114;11.532;2023-11-21T08:26:19;94880.00;;;14.50
15680;BMP180;15488;48.114;11.532;2023-11-21T08:28:47;94878.00;;;14.50
15680;BMP180;15488;48.114;11.532;2023-11-21T08:31:14;94883.00;;;14.50
15680;BMP180;15488;48.114;11.532;2023-11-21T08:33:42;94881.00;;;14.50
15680;BMP180;15488;48.114;11.532;2023-11-21T08:36:10;94876.00;;;14.60
15680;BMP180;15488;48.114;11.532;2023-11-21T08:38:38;94877.00;;;14.70
15680;BMP180;15488;48.114;11.532;2023-11-21T08:41:08;94879.00;;;14.50
15680;BMP180;15488;48.114;11.532;2023-11-21T08:43:35;94872.00;;;14.50
15680;BMP180;15488;48.114;11.532;2023-11-21T08:46:06;94874.00;;;14.60
15680;BMP180;15488;48.114;11.532;2023-11-21T08:48:36;94877.00;;;14.60
15680;BMP180;15488;48.114;11.532;2023-11-21T08:51:04;94880.00;;;14.60
15680;BMP180;15488;48.114;11.532;2023-11-21T08:53:31;94877.00;;;14.60
15680;BMP180;15488;48.114;11.532;2023-11-21T08:55:59;94883.00;;;14.70
15680;BMP180;15488;48.114;11.532;2023-11-21T08:58:28;94882.00;;;14.80
15680;BMP180;15488;48.114;11.532;2023-11-21T09:00:56;94877.00;;;15.00
15680;BMP180;15488;48.114;11.532;2023-11-21T09:03:24;94884.00;;;14.90
15680;BMP180;15488;48.114;11.532;2023-11-21T09:05:51;94884.00;;;14.90
15680;BMP180;15488;48.114;11.532;2023-11-21T09:08:19;94880.00;;;14.90
15680;BMP180;15488;48.114;11.532;2023-11-21T09:10:48;94884.00;;;15.00
15680;BMP180;15488;48.114;11.532;2023-11-21T09:13:15;94887.00;;;15.00
15680;BMP180;15488;48.114;11.532;2023-11-21T09:15:44;94896.00;;;15.00
15680;BMP180;15488;48.114;11.532;2023-11-21T09:18:13;94892.00;;;15.00
15680;BMP180;15488;48.114;11.532;2023-11-21T09:20:40;94895.00;;;15.00
15680;BMP180;15488;48.114;11.532;2023-11-21T09:23:08;94906.00;;;15.00
15680;BMP180;15488;48.114;11.532;2023-11-21T09:25:36;94907.00;;;14.90
15680;BMP180;15488;48.114;11.532;2023-11-21T09:28:05;94916.00;;;15.00
15680;BMP180;15488;48.114;11.532;2023-11-21T09:30:34;94917.00;;;15.00
15680;BMP180;15488;48.114;11.532;2023-11-21T09:33:03;94916.00;;;15.10
15680;BMP180;15488;48.114;11.532;2023-11-21T09:35:33;94911.00;;;15.10
15680;BMP180;15488;48.114;11.532;2023-11-21T09:38:01;94920.00;;;15.10
15680;BMP180;15488;48.114;11.532;2023-11-21T09:40:31;94911.00;;;15.20
15680;BMP180;15488;48.114;11.532;2023-11-21T09:42:59;94921.00;;;15.20
15680;BMP180;15488;48.114;11.532;2023-11-21T09:45:28;94916.00;;;15.20
15680;BMP180;15488;48.114;11.532;2023-11-21T09:47:57;94917.00;;;15.30
15680;BMP180;15488;48.114;11.532;2023-11-21T09:50:27;94924.00;;;15.40
15680;BMP180;15488;48.114;11.532;2023-11-21T09:53:09;94910.00;;;15.40
15680;BMP180;15488;48.114;11.532;2023-11-21T09:55:42;94907.00;;;15.50
15680;BMP180;15488;48.114;11.532;2023-11-21T09:58:10;94910.00;;;15.70
15680;BMP180;15488;48.114;11.532;2023-11-21T10:00:41;94911.00;;;15.60
15680;BMP180;15488;48.114;11.532;2023-11-21T10:03:09;94907.00;;;15.70
15680;BMP180;15488;48.114;11.532;2023-11-21T10:05:38;94907.00;;;15.60
15680;BMP180;15488;48.114;11.532;2023-11-21T10:08:08;94917.00;;;15.70
15680;BMP180;15488;48.114;11.532;2023-11-21T10:10:37;94908.00;;;15.70
15680;BMP180;15488;48.114;11.532;2023-11-21T10:13:05;94911.00;;;15.70
15680;BMP180;15488;48.114;11.532;2023-11-21T10:15:34;94908.00;;;15.80
15680;BMP180;15488;48.114;11.532;2023-11-21T10:18:06;94918.00;;;15.80
15680;BMP180;15488;48.114;11.532;2023-11-21T10:20:36;94911.00;;;15.90
15680;BMP180;15488;48.114;11.532;2023-11-21T10:23:04;94911.00;;;15.90
15680;BMP180;15488;48.114;11.532;2023-11-21T10:25:33;94907.00;;;16.00
15680;BMP180;15488;48.114;11.532;2023-11-21T10:28:04;94913.00;;;16.00
15680;BMP180;15488;48.114;11.532;2023-11-21T10:30:33;94911.00;;;16.20
15680;BMP180;15488;48.114;11.532;2023-11-21T10:33:03;94914.00;;;16.20
15680;BMP180;15488;48.114;11.532;2023-11-21T10:35:43;94913.00;;;16.30
15680;BMP180;15488;48.114;11.532;2023-11-21T10:38:14;94913.00;;;16.40
15680;BMP180;15488;48.114;11.532;2023-11-21T10:40:42;94921.00;;;16.50
15680;BMP180;15488;48.114;11.532;2023-11-21T10:43:13;94920.00;;;16.50
15680;BMP180;15488;48.114;11.532;2023-11-21T10:45:41;94922.00;;;16.40
15680;BMP180;15488;48.114;11.532;2023-11-21T10:48:10;94922.00;;;16.50
15680;BMP180;15488;48.114;11.532;2023-11-21T10:50:43;94923.00;;;16.40
15680;BMP180;15488;48.114;11.532;2023-11-21T10:53:10;94920.00;;;16.40
15680;BMP180;15488;48.114;11.532;2023-11-21T10:55:39;94916.00;;;16.50
15680;BMP180;15488;48.114;11.532;2023-11-21T10:58:07;94913.00;;;16.50
15680;BMP180;15488;48.114;11.532;2023-11-21T11:00:37;94910.00;;;16.50
15680;BMP180;15488;48.114;11.532;2023-11-21T11:03:06;94910.00;;;16.50
15680;BMP180;15488;48.114;11.532;2023-11-21T11:05:42;94911.00;;;16.50
15680;BMP180;15488;48.114;11.532;2023-11-21T11:08:17;94907.00;;;16.60
15680;BMP180;15488;48.114;11.532;2023-11-21T11:10:46;94915.00;;;16.70
15680;BMP180;15488;48.114;11.532;2023-11-21T11:13:14;94906.00;;;16.70
15680;BMP180;15488;48.114;11.532;2023-11-21T11:15:42;94905.00;;;16.70
15680;BMP180;15488;48.114;11.532;2023-11-21T11:18:10;94906.00;;;16.70
15680;BMP180;15488;48.114;11.532;2023-11-21T11:20:40;94910.00;;;16.70
15680;BMP180;15488;48.114;11.532;2023-11-21T11:23:29;94910.00;;;16.80
15680;BMP180;15488;48.114;11.532;2023-11-21T11:26:08;94910.00;;;16.90
15680;BMP180;15488;48.114;11.532;2023-11-21T11:28:47;94905.00;;;17.00
15680;BMP180;15488;48.114;11.532;2023-11-21T11:31:26;94904.00;;;17.20
15680;BMP180;15488;48.114;11.532;2023-11-21T11:34:05;94903.00;;;17.10
15680;BMP180;15488;48.114;11.532;2023-11-21T11:36:39;94905.00;;;17.30
15680;BMP180;15488;48.114;11.532;2023-11-21T11:39:29;94905.00;;;17.30
15680;BMP180;15488;48.114;11.532;2023-11-21T11:41:58;94910.00;;;17.30
15680;BMP180;15488;48.114;11.532;2023-11-21T11:44:49;94902.00;;;17.10
15680;BMP180;15488;48.114;11.532;2023-11-21T11:47:21;94899.00;;;17.30
15680;BMP180;15488;48.114;11.532;2023-11-21T11:50:01;94893.00;;;17.10
15680;BMP180;15488;48.114;11.532;2023-11-21T11:52:34;94904.00;;;17.20
15680;BMP180;15488;48.114;11.532;2023-11-21T11:55:03;94901.00;;;17.20
15680;BMP180;15488;48.114;11.532;2023-11-21T11:57:31;94904.00;;;17.20
15680;BMP180;15488;48.114;11.532;2023-11-21T12:00:33;94904.00;;;17.10
15680;BMP180;15488;48.114;11.532;2023-11-21T12:03:04;94897.00;;;17.10
15680;BMP180;15488;48.114;11.532;2023-11-21T12:05:33;94896.00;;;17.00
15680;BMP180;15488;48.114;11.532;2023-11-21T12:08:03;94895.00;;;17.00
15680;BMP180;15488;48.114;11.532;2023-11-21T12:10:34;94901.00;;;17.00
15680;BMP180;15488;48.114;11.532;2023-11-21T12:13:02;94900.00;;;17.10
15680;BMP180;15488;48.114;11.532;2023-11-21T12:15:31;94908.00;;;17.10
15680;BMP180;15488;48.114;11.532;2023-11-21T12:17:59;94904.00;;;17.10
15680;BMP180;15488;48.114;11.532;2023-11-21T12:20:27;94905.00;;;17.10
15680;BMP180;15488;48.114;11.532;2023-11-21T12:22:56;94911.00;;;17.20
15680;BMP180;15488;48.114;11.532;2023-11-21T12:25:26;94897.00;;;17.20
15680;BMP180;15488;48.114;11.532;2023-11-21T12:27:57;94897.00;;;17.30
15680;BMP180;15488;48.114;11.532;2023-11-21T12:30:26;94906.00;;;17.20
15680;BMP180;15488;48.114;11.532;2023-11-21T12:32:57;94897.00;;;17.20
15680;BMP180;15488;48.114;11.532;2023-11-21T12:35:26;94901.00;;;17.20
15680;BMP180;15488;48.114;11.532;2023-11-21T12:37:55;94894.00;;;17.30
15680;BMP180;15488;48.114;11.532;2023-11-21T12:40:23;94892.00;;;17.40
15680;BMP180;15488;48.114;11.532;2023-11-21T12:42:53;94895.00;;;17.30
15680;BMP180;15488;48.114;11.532;2023-11-21T12:45:23;94900.00;;;17.20
15680;BMP180;15488;48.114;11.532;2023-11-21T12:47:54;94900.00;;;17.20
15680;BMP180;15488;48.114;11.532;2023-11-21T12:50:23;94902.00;;;17.10
15680;BMP180;15488;48.114;11.532;2023-11-21T12:52:58;94905.00;;;17.10
15680;BMP180;15488;48.114;11.532;2023-11-21T12:55:25;94911.00;;;17.10
15680;BMP180;15488;48.114;11.532;2023-11-21T12:57:54;94915.00;;;17.10
15680;BMP180;15488;48.114;11.532;2023-11-21T13:00:33;94908.00;;;17.10
15680;BMP180;15488;48.114;11.532;2023-11-21T13:03:04;94909.00;;;17.20
15680;BMP180;15488;48.114;11.532;2023-11-21T13:05:33;94914.00;;;17.10
15680;BMP180;15488;48.114;11.532;2023-11-21T13:08:03;94913.00;;;17.10
15680;BMP180;15488;48.114;11.532;2023-11-21T13:10:34;94913.00;;;17.10
15680;BMP180;15488;48.114;11.532;2023-11-21T13:13:04;94907.00;;;17.10
15680;BMP180;15488;48.114;11.532;2023-11-21T13:15:39;94911.00;;;17.10
15680;BMP180;15488;48.114;11.532;2023-11-21T13:18:07;94911.00;;;17.10
15680;BMP180;15488;48.114;11.532;2023-11-21T13:20:37;94913.00;;;17.10
15680;BMP180;15488;48.114;11.532;2023-11-21T13:23:08;94913.00;;;17.20
15680;BMP180;15488;48.114;11.532;2023-11-21T13:25:38;94914.00;;;17.20
15680;BMP180;15488;48.114;11.532;2023-11-21T13:28:08;94922.00;;;17.20
15680;BMP180;15488;48.114;11.532;2023-11-21T13:30:37;94924.00;;;17.20
15680;BMP180;15488;48.114;11.532;2023-11-21T13:33:07;94918.00;;;17.30
15680;BMP180;15488;48.114;11.532;2023-11-21T13:35:35;94922.00;;;17.20
15680;BMP180;15488;48.114;11.532;2023-11-21T13:38:09;94925.00;;;17.20
15680;BMP180;15488;48.114;11.532;2023-11-21T13:40:38;94926.00;;;17.30
15680;BMP180;15488;48.114;11.532;2023-11-21T13:43:09;94926.00;;;17.30
15680;BMP180;15488;48.114;11.532;2023-11-21T13:45:39;94925.00;;;17.40
15680;BMP180;15488;48.114;11.532;2023-11-21T13:48:09;94921.00;;;17.60
15680;BMP180;15488;48.114;11.532;2023-11-21T13:50:40;94928.00;;;17.70
15680;BMP180;15488;48.114;11.532;2023-11-21T13:53:14;94924.00;;;18.00
15680;BMP180;15488;48.114;11.532;2023-11-21T13:55:48;94931.00;;;18.20
15680;BMP180;15488;48.114;11.532;2023-11-21T13:58:16;94940.00;;;18.60
15680;BMP180;15488;48.114;11.532;2023-11-21T14:00:47;94946.00;;;18.80
15680;BMP180;15488;48.114;11.532;2023-11-21T14:03:22;94954.00;;;18.90
15680;BMP180;15488;48.114;11.532;2023-11-21T14:05:58;94966.00;;;19.00